createdAt,value
2019-02-08T00:00:49.473Z,53.87
2019-02-08T00:03:18.792Z,53.60
2019-02-08T00:05:48.880Z,53.53
2019-02-08T00:08:18.529Z,53.13
2019-02-08T00:10:48.030Z,47.13
2019-02-08T00:13:17.333Z,51.27
2019-02-08T00:15:46.684Z,54.47
2019-02-08T00:18:15.993Z,54.03
2019-02-08T00:20:45.412Z,51.23
2019-02-08T00:23:26.021Z,54.13
2019-02-08T00:25:45.693Z,53.40
2019-02-08T00:28:14.998Z,55.43
2019-02-08T00:30:44.421Z,55.70
2019-02-08T00:33:13.796Z,51.43
2019-02-08T00:35:43.145Z,52.87
2019-02-08T00:38:12.461Z,51.77
2019-02-08T00:40:42.102Z,54.13
2019-02-08T00:43:11.971Z,56.97
2019-02-08T00:45:41.328Z,51.83
2019-02-08T00:48:10.657Z,51.77
2019-02-08T00:50:40.009Z,53.03
2019-02-08T00:53:09.321Z,53.30
2019-02-08T00:55:39.168Z,52.17
2019-02-08T00:58:08.484Z,55.57
2019-02-08T01:00:37.821Z,55.43
2019-02-08T01:03:07.176Z,51.90
2019-02-08T01:05:36.489Z,40.20
2019-02-08T01:08:05.829Z,55.67
2019-02-08T01:10:35.153Z,52.40
2019-02-08T01:13:05.080Z,58.03
2019-02-08T01:15:34.389Z,52.13
2019-02-08T01:18:03.835Z,52.37
2019-02-08T01:20:33.324Z,56.83
2019-02-08T01:23:02.676Z,55.67
2019-02-08T01:25:33.361Z,56.50
2019-02-08T01:28:02.715Z,56.23
2019-02-08T01:30:33.564Z,55.77
2019-02-08T01:33:03.053Z,51.73
2019-02-08T01:35:33.645Z,54.17
2019-02-08T01:38:03.001Z,55.67
2019-02-08T01:40:37.163Z,51.30
2019-02-08T01:43:07.764Z,56.27
2019-02-08T01:45:37.050Z,56.43
2019-02-08T01:48:07.834Z,57.20
2019-02-08T01:50:37.150Z,56.27
2019-02-08T01:53:07.664Z,56.63
2019-02-08T01:55:36.977Z,58.73
2019-02-08T01:58:06.329Z,58.77
2019-02-08T02:00:40.345Z,55.50
2019-02-08T02:03:10.526Z,58.40
2019-02-08T02:05:39.835Z,56.73
2019-02-08T02:08:09.184Z,55.13
2019-02-08T02:10:40.633Z,57.27
2019-02-08T02:13:10.257Z,55.60
2019-02-08T02:15:39.574Z,55.83
2019-02-08T02:18:09.266Z,58.50
2019-02-08T02:20:40.588Z,58.73
2019-02-08T02:23:11.167Z,53.40
2019-02-08T02:25:40.476Z,55.53
2019-02-08T02:28:09.826Z,56.90
2019-02-08T02:30:39.133Z,54.47
2019-02-08T02:33:10.729Z,58.20
2019-02-08T02:35:40.050Z,56.97
2019-02-08T02:38:10.467Z,56.67
2019-02-08T02:40:40.340Z,57.87
2019-02-08T02:43:09.704Z,54.77
2019-02-08T02:45:40.577Z,55.73
2019-02-08T02:48:11.675Z,54.50
2019-02-08T02:50:41.054Z,55.27
2019-02-08T02:53:10.435Z,55.43
2019-02-08T02:55:39.741Z,56.53
2019-02-08T02:58:09.100Z,53.90
2019-02-08T03:00:46.081Z,54.27
2019-02-08T03:03:15.662Z,55.23
2019-02-08T03:05:45.040Z,53.57
2019-02-08T03:08:15.032Z,55.43
2019-02-08T03:10:44.331Z,55.83
2019-02-08T03:13:13.857Z,55.73
2019-02-08T03:15:43.153Z,52.60
2019-02-08T03:18:12.492Z,57.37
2019-02-08T03:20:41.801Z,54.77
2019-02-08T03:23:11.149Z,55.60
2019-02-08T03:25:40.519Z,56.33
2019-02-08T03:28:09.892Z,52.47
2019-02-08T03:30:40.809Z,54.97
2019-02-08T03:33:10.150Z,48.47
2019-02-08T03:35:39.456Z,52.37
2019-02-08T03:38:08.804Z,54.03
2019-02-08T03:40:38.147Z,49.63
2019-02-08T03:43:08.374Z,52.53
2019-02-08T03:45:39.421Z,51.40
2019-02-08T03:48:09.108Z,54.73
2019-02-08T03:50:38.434Z,51.43
2019-02-08T03:53:08.303Z,52.20
2019-02-08T03:55:38.771Z,49.53
2019-02-08T03:58:08.452Z,50.07
2019-02-08T04:00:48.313Z,47.73
2019-02-08T04:03:17.653Z,50.23
2019-02-08T04:05:46.973Z,48.40
2019-02-08T04:08:16.337Z,47.60
2019-02-08T04:10:45.704Z,48.63
2019-02-08T04:13:15.068Z,51.03
2019-02-08T04:15:44.364Z,50.27
2019-02-08T04:18:18.576Z,50.23
2019-02-08T04:20:48.598Z,46.00
2019-02-08T04:23:17.938Z,45.87
2019-02-08T04:25:47.245Z,45.33
2019-02-08T04:28:16.597Z,43.50
2019-02-08T04:30:45.907Z,48.13
2019-02-08T04:33:15.246Z,49.67
2019-02-08T04:35:44.603Z,47.13
2019-02-08T04:38:13.907Z,53.93
2019-02-08T04:40:43.253Z,51.13
2019-02-08T04:43:12.578Z,45.83
2019-02-08T04:45:41.917Z,47.73
2019-02-08T04:48:11.219Z,48.60
2019-02-08T04:50:40.564Z,49.77
2019-02-08T04:53:09.871Z,50.37
2019-02-08T04:55:39.229Z,47.40
2019-02-08T04:58:08.529Z,50.10
2019-02-08T05:00:41.149Z,48.50
2019-02-08T05:03:11.216Z,48.17
2019-02-08T05:05:40.564Z,51.77
2019-02-08T05:08:09.870Z,50.73
2019-02-08T05:10:39.220Z,53.43
2019-02-08T05:13:08.524Z,51.30
2019-02-08T05:15:37.872Z,48.87
2019-02-08T05:18:07.181Z,49.30
2019-02-08T05:20:36.532Z,49.03
2019-02-08T05:23:05.837Z,48.77
2019-02-08T05:25:35.248Z,47.37
2019-02-08T05:28:04.629Z,50.00
2019-02-08T05:30:36.482Z,51.13
2019-02-08T05:33:06.040Z,48.73
2019-02-08T05:35:35.640Z,49.43
2019-02-08T05:38:05.016Z,50.33
2019-02-08T05:40:34.359Z,47.63
2019-02-08T05:43:03.670Z,48.03
2019-02-08T05:45:33.014Z,47.23
2019-02-08T05:48:02.325Z,52.70
2019-02-08T05:50:31.677Z,54.93
2019-02-08T05:53:00.984Z,50.73
2019-02-08T05:55:31.577Z,55.67
2019-02-08T05:58:00.884Z,50.43
2019-02-08T06:00:43.516Z,51.27
2019-02-08T06:03:12.834Z,50.87
2019-02-08T06:05:42.242Z,51.37
2019-02-08T06:08:11.556Z,50.37
2019-02-08T06:10:40.901Z,50.30
2019-02-08T06:13:10.200Z,52.53
2019-02-08T06:15:39.621Z,51.73
2019-02-08T06:18:09.766Z,49.43
2019-02-08T06:20:39.273Z,50.90
2019-02-08T06:23:08.618Z,49.30
2019-02-08T06:25:37.928Z,49.90
2019-02-08T06:28:07.255Z,46.73
2019-02-08T06:30:36.694Z,46.40
2019-02-08T06:33:06.140Z,48.73
2019-02-08T06:35:35.509Z,49.03
2019-02-08T06:38:05.681Z,46.93
2019-02-08T06:40:38.277Z,46.03
2019-02-08T06:43:08.656Z,45.23
2019-02-08T06:45:38.005Z,44.37
2019-02-08T06:48:08.749Z,41.27
2019-02-08T06:50:38.104Z,46.40
2019-02-08T06:53:07.404Z,43.57
2019-02-08T06:55:36.753Z,44.90
2019-02-08T06:58:11.189Z,45.47
2019-02-08T07:00:57.265Z,42.77
2019-02-08T07:03:43.241Z,40.90
2019-02-08T07:06:32.029Z,38.80
2019-02-08T07:09:11.648Z,38.27
2019-02-08T07:11:54.672Z,35.53
2019-02-08T07:14:28.359Z,37.77
2019-02-08T07:17:05.386Z,38.67
2019-02-08T07:19:36.332Z,56.90
2019-02-08T07:22:13.323Z,62.77
2019-02-08T07:24:44.273Z,88.37
2019-02-08T07:27:15.260Z,65.27
2019-02-08T07:29:46.206Z,36.33
2019-02-08T07:32:32.530Z,33.40
2019-02-08T07:35:06.299Z,32.37
2019-02-08T07:37:44.430Z,36.60
2019-02-08T07:40:32.705Z,32.07
2019-02-08T07:43:09.520Z,29.77
2019-02-08T07:46:00.984Z,30.70
2019-02-08T07:48:46.788Z,27.17
2019-02-08T07:51:20.289Z,26.20
2019-02-08T07:53:59.939Z,24.33
2019-02-08T07:56:46.916Z,26.47
2019-02-08T07:59:23.630Z,26.37
2019-02-08T08:01:54.568Z,27.37
2019-02-08T08:04:25.553Z,26.50
2019-02-08T08:07:05.573Z,26.40
2019-02-08T08:09:52.657Z,26.00
2019-02-08T08:12:23.600Z,24.17
2019-02-08T08:14:54.660Z,26.07
2019-02-08T08:17:28.322Z,28.87
2019-02-08T08:20:08.480Z,28.20
2019-02-08T08:22:57.614Z,23.13
2019-02-08T08:25:43.641Z,25.83
2019-02-08T08:28:17.464Z,26.17
2019-02-08T08:30:48.450Z,23.37
2019-02-08T08:33:41.724Z,23.30
2019-02-08T08:36:17.244Z,23.87
2019-02-08T08:38:58.434Z,22.07
2019-02-08T08:41:45.982Z,23.10
2019-02-08T08:44:36.613Z,20.77
2019-02-08T08:47:39.139Z,23.17
2019-02-08T08:50:28.202Z,23.50
2019-02-08T08:53:03.481Z,30.57
2019-02-08T08:56:08.857Z,23.80
2019-02-08T08:58:56.128Z,22.77
2019-02-08T09:01:43.703Z,28.20
2019-02-08T09:04:28.133Z,22.53
2019-02-08T09:07:16.573Z,22.70
2019-02-08T09:09:58.066Z,19.90
2019-02-08T09:12:51.393Z,23.20
2019-02-08T09:15:41.647Z,22.10
2019-02-08T09:18:19.976Z,20.93
2019-02-08T09:21:06.762Z,22.63
2019-02-08T09:24:04.693Z,23.97
2019-02-08T09:26:39.929Z,21.43
2019-02-08T09:29:29.073Z,23.20
2019-02-08T09:32:07.410Z,21.13
2019-02-08T09:35:12.914Z,22.30
2019-02-08T09:38:01.640Z,22.70
2019-02-08T09:40:56.802Z,26.23
2019-02-08T09:43:51.445Z,23.30
2019-02-08T09:46:44.690Z,23.43
2019-02-08T09:49:38.312Z,21.90
2019-02-08T09:52:42.161Z,20.63
2019-02-08T09:55:33.808Z,28.37
2019-02-08T09:58:25.445Z,25.70
2019-02-08T10:01:20.475Z,22.10
2019-02-08T10:03:53.041Z,21.60
2019-02-08T10:06:45.068Z,20.40
2019-02-08T10:09:17.628Z,21.50
2019-02-08T10:11:53.057Z,19.17
2019-02-08T10:14:37.236Z,21.77
2019-02-08T10:17:33.329Z,22.20
2019-02-08T10:20:34.148Z,19.90
2019-02-08T10:23:39.870Z,20.37
2019-02-08T10:26:45.549Z,19.50
2019-02-08T10:29:34.714Z,19.73
2019-02-08T10:32:23.780Z,20.60
2019-02-08T10:35:29.112Z,20.83
2019-02-08T10:38:17.449Z,20.87
2019-02-08T10:41:04.688Z,20.90
2019-02-08T10:43:45.928Z,19.03
2019-02-08T10:46:51.439Z,16.23
2019-02-08T10:49:49.445Z,21.87
2019-02-08T10:52:30.962Z,20.23
2019-02-08T10:55:19.848Z,20.90
2019-02-08T10:58:25.244Z,20.83
2019-02-08T11:01:29.405Z,20.40
2019-02-08T11:04:16.149Z,17.90
2019-02-08T11:07:03.630Z,21.37
2019-02-08T11:10:11.444Z,19.97
2019-02-08T11:13:00.213Z,19.57
2019-02-08T11:15:38.773Z,19.50
2019-02-08T11:18:39.973Z,20.00
2019-02-08T11:21:09.320Z,20.27
2019-02-08T11:23:38.634Z,18.40
2019-02-08T11:26:07.978Z,18.47
2019-02-08T11:28:37.294Z,18.50
2019-02-08T11:31:06.645Z,18.67
2019-02-08T11:33:35.957Z,20.13
2019-02-08T11:36:05.402Z,19.40
2019-02-08T11:38:34.717Z,17.67
2019-02-08T11:41:04.067Z,19.70
2019-02-08T11:43:33.417Z,17.93
2019-02-08T11:46:02.738Z,17.90
2019-02-08T11:48:32.139Z,18.23
2019-02-08T11:51:01.484Z,18.53
2019-02-08T11:53:30.833Z,17.70
2019-02-08T11:56:00.140Z,18.07
2019-02-08T11:58:29.500Z,18.00
2019-02-08T12:00:58.801Z,18.20
2019-02-08T12:03:28.478Z,18.33
2019-02-08T12:05:58.205Z,16.90
2019-02-08T12:08:27.541Z,17.20
2019-02-08T12:10:56.860Z,18.10
2019-02-08T12:13:26.198Z,17.03
2019-02-08T12:15:55.511Z,17.53
2019-02-08T12:18:24.856Z,19.30
2019-02-08T12:20:54.169Z,18.17
2019-02-08T12:23:23.521Z,18.60
2019-02-08T12:25:52.837Z,19.87
2019-02-08T12:28:22.193Z,18.07
2019-02-08T12:30:51.493Z,18.50
2019-02-08T12:33:20.863Z,18.93
2019-02-08T12:35:50.154Z,18.23
2019-02-08T12:38:19.508Z,17.53
2019-02-08T12:40:48.816Z,17.87
2019-02-08T12:43:18.168Z,19.47
2019-02-08T12:45:47.484Z,17.00
2019-02-08T12:48:16.838Z,18.60
2019-02-08T12:50:46.153Z,17.57
2019-02-08T12:53:15.568Z,17.57
2019-02-08T12:55:44.882Z,17.93
2019-02-08T12:58:14.274Z,19.13
2019-02-08T13:00:43.550Z,17.73
2019-02-08T13:03:12.897Z,17.83
2019-02-08T13:05:42.213Z,17.77
2019-02-08T13:08:11.561Z,20.43
2019-02-08T13:10:40.881Z,19.03
2019-02-08T13:13:10.232Z,18.77
2019-02-08T13:15:39.544Z,20.87
2019-02-08T13:18:08.889Z,20.53
2019-02-08T13:20:38.201Z,20.13
2019-02-08T13:23:07.618Z,24.27
2019-02-08T13:25:36.934Z,24.43
2019-02-08T13:28:06.377Z,27.50
2019-02-08T13:30:36.326Z,27.60
2019-02-08T13:33:05.673Z,27.00
2019-02-08T13:35:35.023Z,27.30
2019-02-08T13:38:04.369Z,29.90
2019-02-08T13:40:33.716Z,28.10
2019-02-08T13:43:03.036Z,27.17
2019-02-08T13:45:32.385Z,28.23
2019-02-08T13:48:01.722Z,29.00
2019-02-08T13:50:32.406Z,29.57
2019-02-08T13:53:01.722Z,29.70
2019-02-08T13:55:31.058Z,30.13
2019-02-08T13:58:00.364Z,31.07
2019-02-08T14:00:32.418Z,28.77
2019-02-08T14:03:01.718Z,28.23
2019-02-08T14:05:31.066Z,27.60
2019-02-08T14:08:00.373Z,27.70
2019-02-08T14:10:29.717Z,27.80
2019-02-08T14:12:59.032Z,27.33
2019-02-08T14:15:28.361Z,28.03
2019-02-08T14:17:57.667Z,27.33
2019-02-08T14:20:28.045Z,25.23
2019-02-08T14:22:58.450Z,24.67
2019-02-08T14:25:28.777Z,27.20
2019-02-08T14:27:58.091Z,29.20
2019-02-08T14:30:29.682Z,27.03
2019-02-08T14:32:59.014Z,27.70
2019-02-08T14:35:28.415Z,25.87
2019-02-08T14:37:58.987Z,29.03
2019-02-08T14:40:30.264Z,27.77
2019-02-08T14:42:59.553Z,26.33
2019-02-08T14:45:28.942Z,28.13
2019-02-08T14:47:58.252Z,26.43
2019-02-08T14:50:28.838Z,28.27
2019-02-08T14:52:58.377Z,29.87
2019-02-08T14:55:28.008Z,30.53
2019-02-08T14:57:59.641Z,31.60
2019-02-08T15:00:28.996Z,28.20
2019-02-08T15:02:58.298Z,29.67
2019-02-08T15:05:27.959Z,26.77
2019-02-08T15:07:57.670Z,26.23
2019-02-08T15:10:45.609Z,26.13
2019-02-08T15:13:14.908Z,25.27
2019-02-08T15:15:44.254Z,28.00
2019-02-08T15:18:13.553Z,27.67
2019-02-08T15:20:42.910Z,25.80
2019-02-08T15:23:12.209Z,28.03
2019-02-08T15:25:41.556Z,26.57
2019-02-08T15:28:11.821Z,30.40
2019-02-08T15:30:41.184Z,29.07
2019-02-08T15:33:10.488Z,30.60
2019-02-08T15:35:39.837Z,25.13
2019-02-08T15:38:09.137Z,30.53
2019-02-08T15:40:41.344Z,25.87
2019-02-08T15:43:11.885Z,25.40
2019-02-08T15:45:42.565Z,26.93
2019-02-08T15:48:11.862Z,26.00
2019-02-08T15:50:41.205Z,25.57
2019-02-08T15:53:10.497Z,26.83
2019-02-08T15:55:48.716Z,27.40
2019-02-08T15:58:18.035Z,31.03
2019-02-08T16:00:47.381Z,32.10
2019-02-08T16:03:16.689Z,29.70
2019-02-08T16:05:46.037Z,30.90
2019-02-08T16:08:15.342Z,27.63
2019-02-08T16:10:44.677Z,28.60
2019-02-08T16:13:13.977Z,29.00
2019-02-08T16:15:43.342Z,27.60
2019-02-08T16:18:12.696Z,30.20
2019-02-08T16:20:42.037Z,29.70
2019-02-08T16:23:11.341Z,29.43
2019-02-08T16:25:40.687Z,30.90
2019-02-08T16:28:09.988Z,29.93
2019-02-08T16:30:39.328Z,32.20
2019-02-08T16:33:09.173Z,30.77
2019-02-08T16:35:38.512Z,33.20
2019-02-08T16:38:07.817Z,30.33
2019-02-08T16:40:37.188Z,30.03
2019-02-08T16:43:06.833Z,31.80
2019-02-08T16:45:39.822Z,30.57
2019-02-08T16:48:13.089Z,32.50
2019-02-08T16:50:43.014Z,30.37
2019-02-08T16:53:12.756Z,30.63
2019-02-08T16:55:42.108Z,32.03
2019-02-08T16:58:12.882Z,33.73
2019-02-08T17:00:42.931Z,31.13
2019-02-08T17:03:13.626Z,33.23
2019-02-08T17:05:43.064Z,31.87
2019-02-08T17:08:12.410Z,33.03
2019-02-08T17:10:41.710Z,33.50
2019-02-08T17:13:12.701Z,33.67
2019-02-08T17:15:42.016Z,33.70
2019-02-08T17:18:12.923Z,33.33
2019-02-08T17:20:45.028Z,34.80
2019-02-08T17:23:14.389Z,33.27
2019-02-08T17:25:43.694Z,33.70
2019-02-08T17:28:14.205Z,35.73
2019-02-08T17:30:43.585Z,34.03
2019-02-08T17:33:12.928Z,35.87
2019-02-08T17:35:42.230Z,33.50
2019-02-08T17:38:11.565Z,34.47
2019-02-08T17:40:43.681Z,34.97
2019-02-08T17:43:13.023Z,35.77
2019-02-08T17:45:42.338Z,35.93
2019-02-08T17:48:15.884Z,35.23
2019-02-08T17:50:45.261Z,36.00
2019-02-08T17:53:14.686Z,38.60
2019-02-08T17:55:43.988Z,37.33
2019-02-08T17:58:13.329Z,34.73
2019-02-08T18:00:46.208Z,35.10
2019-02-08T18:03:15.556Z,35.97
2019-02-08T18:05:44.936Z,34.60
2019-02-08T18:08:14.279Z,36.67
2019-02-08T18:10:43.589Z,37.20
2019-02-08T18:13:13.697Z,38.80
2019-02-08T18:15:43.012Z,38.47
2019-02-08T18:18:15.564Z,36.33
2019-02-08T18:20:47.672Z,39.53
2019-02-08T18:23:18.919Z,38.63
2019-02-08T18:25:48.984Z,35.03
2019-02-08T18:28:18.356Z,38.77
2019-02-08T18:30:47.659Z,39.93
2019-02-08T18:33:17.080Z,38.33
2019-02-08T18:35:46.389Z,41.30
2019-02-08T18:38:15.810Z,41.47
2019-02-08T18:40:45.109Z,39.40
2019-02-08T18:43:14.471Z,37.63
2019-02-08T18:45:43.780Z,37.57
2019-02-08T18:48:13.117Z,38.87
2019-02-08T18:50:45.260Z,39.93
2019-02-08T18:53:14.606Z,38.77
2019-02-08T18:55:43.920Z,38.43
2019-02-08T18:58:18.718Z,39.57
2019-02-08T19:00:51.896Z,38.27
2019-02-08T19:03:22.300Z,36.33
2019-02-08T19:05:51.585Z,38.10
2019-02-08T19:08:20.930Z,35.17
2019-02-08T19:10:50.236Z,35.57
2019-02-08T19:13:19.656Z,35.13
2019-02-08T19:15:48.962Z,30.77
2019-02-08T19:18:18.314Z,36.00
2019-02-08T19:20:47.618Z,35.23
2019-02-08T19:23:16.969Z,32.53
2019-02-08T19:25:46.544Z,71.40
2019-02-08T19:28:15.900Z,35.20
2019-02-08T19:30:45.376Z,32.67
2019-02-08T19:33:14.720Z,38.30
2019-02-08T19:35:44.018Z,36.43
2019-02-08T19:38:13.360Z,31.80
2019-02-08T19:40:47.639Z,44.33
2019-02-08T19:43:17.009Z,45.97
2019-02-08T19:45:46.290Z,32.73
2019-02-08T19:48:15.590Z,33.37
2019-02-08T19:50:46.981Z,34.23
2019-02-08T19:53:16.286Z,35.87
2019-02-08T19:55:45.640Z,32.53
2019-02-08T19:58:16.581Z,33.20
2019-02-08T20:00:45.930Z,34.10
2019-02-08T20:03:15.232Z,30.63
2019-02-08T20:05:44.582Z,33.43
2019-02-08T20:08:14.858Z,36.10
2019-02-08T20:10:50.646Z,33.47
2019-02-08T20:13:22.552Z,36.80
2019-02-08T20:15:54.151Z,36.13
2019-02-08T20:18:23.454Z,36.43
2019-02-08T20:20:52.787Z,39.47
2019-02-08T20:23:22.084Z,39.70
2019-02-08T20:25:51.498Z,37.17
2019-02-08T20:28:22.033Z,36.03
2019-02-08T20:30:51.398Z,35.10
2019-02-08T20:33:20.753Z,34.60
2019-02-08T20:35:50.089Z,35.73
2019-02-08T20:38:19.465Z,38.10
2019-02-08T20:40:50.346Z,37.83
2019-02-08T20:43:19.644Z,36.87
2019-02-08T20:45:50.602Z,33.67
2019-02-08T20:48:21.544Z,34.37
2019-02-08T20:50:52.144Z,45.20
2019-02-08T20:53:22.722Z,37.10
2019-02-08T20:55:52.407Z,35.50
2019-02-08T20:58:21.839Z,38.70
2019-02-08T21:00:52.284Z,34.40
2019-02-08T21:03:21.589Z,40.47
2019-02-08T21:05:51.501Z,38.47
2019-02-08T21:08:20.800Z,39.00
2019-02-08T21:10:50.741Z,41.07
2019-02-08T21:13:23.378Z,37.33
2019-02-08T21:15:52.816Z,40.33
2019-02-08T21:18:22.123Z,38.73
2019-02-08T21:20:51.466Z,39.60
2019-02-08T21:23:20.774Z,39.73
2019-02-08T21:25:51.885Z,39.67
2019-02-08T21:28:21.042Z,39.23
2019-02-08T21:30:50.389Z,38.13
2019-02-08T21:33:21.315Z,38.47
2019-02-08T21:35:50.667Z,41.57
2019-02-08T21:38:20.030Z,41.27
2019-02-08T21:40:49.385Z,39.57
2019-02-08T21:43:18.688Z,38.93
2019-02-08T21:45:48.038Z,41.93
2019-02-08T21:48:17.352Z,39.47
2019-02-08T21:50:48.349Z,42.93
2019-02-08T21:53:17.693Z,44.20
2019-02-08T21:55:47.115Z,42.10
2019-02-08T21:58:16.412Z,41.53
2019-02-08T22:00:45.769Z,43.37
2019-02-08T22:03:15.165Z,44.93
2019-02-08T22:05:48.793Z,42.67
2019-02-08T22:08:19.553Z,42.93
2019-02-08T22:10:50.127Z,41.20
2019-02-08T22:13:20.005Z,44.13
2019-02-08T22:15:49.349Z,43.17
2019-02-08T22:18:20.332Z,44.60
2019-02-08T22:20:49.793Z,42.23
2019-02-08T22:23:19.121Z,41.37
2019-02-08T22:25:48.421Z,43.13
2019-02-08T22:28:17.773Z,37.27
2019-02-08T22:30:47.086Z,42.60
2019-02-08T22:33:16.424Z,39.03
2019-02-08T22:35:47.099Z,41.03
2019-02-08T22:38:16.449Z,39.67
2019-02-08T22:40:45.748Z,41.13
2019-02-08T22:43:15.087Z,37.07
2019-02-08T22:45:44.393Z,43.37
2019-02-08T22:48:14.823Z,40.57
2019-02-08T22:50:44.196Z,42.43
2019-02-08T22:53:13.567Z,40.17
2019-02-08T22:55:42.872Z,41.70
2019-02-08T22:58:12.215Z,34.17
2019-02-08T23:00:50.500Z,39.20
2019-02-08T23:03:20.220Z,39.97
2019-02-08T23:05:49.524Z,41.07
2019-02-08T23:08:19.068Z,41.17
2019-02-08T23:10:48.406Z,40.30
2019-02-08T23:13:17.821Z,41.30
2019-02-08T23:15:47.126Z,41.37
2019-02-08T23:18:16.544Z,39.57
2019-02-08T23:20:45.849Z,39.67
2019-02-08T23:23:15.190Z,38.83
2019-02-08T23:25:44.496Z,38.23
2019-02-08T23:28:13.839Z,40.43
2019-02-08T23:30:43.145Z,37.50
2019-02-08T23:33:12.487Z,37.37
2019-02-08T23:35:43.013Z,39.33
2019-02-08T23:38:14.012Z,37.20
2019-02-08T23:40:43.384Z,36.67
2019-02-08T23:43:12.728Z,37.87
2019-02-08T23:45:42.028Z,36.63
2019-02-08T23:48:11.375Z,37.47
2019-02-08T23:50:40.674Z,36.63
2019-02-08T23:53:10.027Z,36.33
2019-02-08T23:55:39.321Z,38.33
2019-02-08T23:58:08.665Z,38.43
